sensor_id;sensor_type;location;lat;lon;timestamp;temperature;humidity
33105;DHT22;19476;51.448;6.674;2023-06-24T00:01:25;26.00;46.80
33105;DHT22;19476;51.448;6.674;2023-06-24T00:03:51;25.90;46.90
33105;DHT22;19476;51.448;6.674;2023-06-24T00:06:19;25.90;47.00
33105;DHT22;19476;51.448;6.674;2023-06-24T00:08:46;25.90;47.20
33105;DHT22;19476;51.448;6.674;2023-06-24T00:11:11;25.80;47.20
33105;DHT22;19476;51.448;6.674;2023-06-24T00:13:39;25.80;47.20
33105;DHT22;19476;51.448;6.674;2023-06-24T00:16:05;25.80;47.40
33105;DHT22;19476;51.448;6.674;2023-06-24T00:18:35;25.80;47.40
33105;DHT22;19476;51.448;6.674;2023-06-24T00:21:01;25.70;47.40
33105;DHT22;19476;51.448;6.674;2023-06-24T00:23:28;25.70;47.60
33105;DHT22;19476;51.448;6.674;2023-06-24T00:25:55;25.70;47.80
33105;DHT22;19476;51.448;6.674;2023-06-24T00:28:22;25.70;47.80
33105;DHT22;19476;51.448;6.674;2023-06-24T00:30:49;25.60;47.90
33105;DHT22;19476;51.448;6.674;2023-06-24T00:33:15;25.60;47.90
33105;DHT22;19476;51.448;6.674;2023-06-24T00:35:42;25.60;48.00
33105;DHT22;19476;51.448;6.674;2023-06-24T00:38:08;25.60;47.90
33105;DHT22;19476;51.448;6.674;2023-06-24T00:40:34;25.50;48.00
33105;DHT22;19476;51.448;6.674;2023-06-24T00:43:00;25.50;48.10
33105;DHT22;19476;51.448;6.674;2023-06-24T00:45:28;25.50;48.10
33105;DHT22;19476;51.448;6.674;2023-06-24T00:47:55;25.50;48.00
33105;DHT22;19476;51.448;6.674;2023-06-24T00:50:22;25.40;48.10
33105;DHT22;19476;51.448;6.674;2023-06-24T00:52:48;25.40;48.20
33105;DHT22;19476;51.448;6.674;2023-06-24T00:55:16;25.40;48.30
33105;DHT22;19476;51.448;6.674;2023-06-24T00:57:43;25.40;48.40
33105;DHT22;19476;51.448;6.674;2023-06-24T01:00:10;25.40;48.60
33105;DHT22;19476;51.448;6.674;2023-06-24T01:02:41;25.40;48.50
33105;DHT22;19476;51.448;6.674;2023-06-24T01:05:09;25.30;48.40
33105;DHT22;19476;51.448;6.674;2023-06-24T01:07:37;25.30;48.50
33105;DHT22;19476;51.448;6.674;2023-06-24T01:10:04;25.30;48.60
33105;DHT22;19476;51.448;6.674;2023-06-24T01:12:33;25.20;48.60
33105;DHT22;19476;51.448;6.674;2023-06-24T01:15:00;25.20;48.50
33105;DHT22;19476;51.448;6.674;2023-06-24T01:17:39;25.20;48.60
33105;DHT22;19476;51.448;6.674;2023-06-24T01:20:11;25.10;49.30
33105;DHT22;19476;51.448;6.674;2023-06-24T01:33:52;25.00;49.70
33105;DHT22;19476;51.448;6.674;2023-06-24T01:36:23;24.80;49.30
33105;DHT22;19476;51.448;6.674;2023-06-24T01:38:56;25.00;49.40
33105;DHT22;19476;51.448;6.674;2023-06-24T01:41:25;25.00;49.60
33105;DHT22;19476;51.448;6.674;2023-06-24T01:43:56;25.00;49.30
33105;DHT22;19476;51.448;6.674;2023-06-24T01:46:25;24.90;49.30
33105;DHT22;19476;51.448;6.674;2023-06-24T01:48:53;24.70;49.00
33105;DHT22;19476;51.448;6.674;2023-06-24T01:51:20;24.90;49.10
33105;DHT22;19476;51.448;6.674;2023-06-24T01:54:01;24.90;49.00
33105;DHT22;19476;51.448;6.674;2023-06-24T01:56:27;24.90;49.30
33105;DHT22;19476;51.448;6.674;2023-06-24T01:58:56;24.90;48.90
33105;DHT22;19476;51.448;6.674;2023-06-24T02:01:24;24.80;48.90
33105;DHT22;19476;51.448;6.674;2023-06-24T02:03:50;24.70;49.00
33105;DHT22;19476;51.448;6.674;2023-06-24T02:06:19;24.70;49.20
33105;DHT22;19476;51.448;6.674;2023-06-24T02:08:48;24.60;49.40
33105;DHT22;19476;51.448;6.674;2023-06-24T02:11:15;24.60;49.50
33105;DHT22;19476;51.448;6.674;2023-06-24T02:13:43;24.50;49.50
33105;DHT22;19476;51.448;6.674;2023-06-24T02:16:10;24.40;49.60
33105;DHT22;19476;51.448;6.674;2023-06-24T02:18:39;24.40;49.70
33105;DHT22;19476;51.448;6.674;2023-06-24T02:21:09;24.40;49.90
33105;DHT22;19476;51.448;6.674;2023-06-24T02:23:38;24.40;49.90
33105;DHT22;19476;51.448;6.674;2023-06-24T02:26:05;24.40;50.10
33105;DHT22;19476;51.448;6.674;2023-06-24T02:28:33;24.40;49.90
33105;DHT22;19476;51.448;6.674;2023-06-24T02:30:59;24.40;49.80
33105;DHT22;19476;51.448;6.674;2023-06-24T02:33:26;24.40;49.40
33105;DHT22;19476;51.448;6.674;2023-06-24T02:35:52;24.40;49.40
33105;DHT22;19476;51.448;6.674;2023-06-24T02:38:18;24.40;49.40
33105;DHT22;19476;51.448;6.674;2023-06-24T02:40:45;24.40;49.30
33105;DHT22;19476;51.448;6.674;2023-06-24T02:43:12;24.40;49.20
33105;DHT22;19476;51.448;6.674;2023-06-24T02:45:38;24.40;49.20
33105;DHT22;19476;51.448;6.674;2023-06-24T02:48:06;24.30;49.10
33105;DHT22;19476;51.448;6.674;2023-06-24T02:50:33;24.30;49.10
33105;DHT22;19476;51.448;6.674;2023-06-24T02:52:59;24.30;49.10
33105;DHT22;19476;51.448;6.674;2023-06-24T02:55:26;24.20;49.00
33105;DHT22;19476;51.448;6.674;2023-06-24T02:57:53;24.20;49.20
33105;DHT22;19476;51.448;6.674;2023-06-24T03:00:20;24.20;49.20
33105;DHT22;19476;51.448;6.674;2023-06-24T03:02:46;24.10;49.20
33105;DHT22;19476;51.448;6.674;2023-06-24T03:05:14;24.20;49.40
33105;DHT22;19476;51.448;6.674;2023-06-24T03:07:41;24.10;49.40
33105;DHT22;19476;51.448;6.674;2023-06-24T03:10:08;24.10;49.40
33105;DHT22;19476;51.448;6.674;2023-06-24T03:12:33;24.10;49.40
33105;DHT22;19476;51.448;6.674;2023-06-24T03:14:59;24.10;49.40
33105;DHT22;19476;51.448;6.674;2023-06-24T03:17:26;24.10;49.40
33105;DHT22;19476;51.448;6.674;2023-06-24T03:19:52;24.10;49.40
33105;DHT22;19476;51.448;6.674;2023-06-24T03:22:18;24.10;49.50
33105;DHT22;19476;51.448;6.674;2023-06-24T03:24:44;24.00;50.00
33105;DHT22;19476;51.448;6.674;2023-06-24T03:27:10;24.00;49.50
33105;DHT22;19476;51.448;6.674;2023-06-24T03:29:36;24.00;49.50
33105;DHT22;19476;51.448;6.674;2023-06-24T03:32:02;24.00;49.60
33105;DHT22;19476;51.448;6.674;2023-06-24T03:34:27;23.90;49.60
33105;DHT22;19476;51.448;6.674;2023-06-24T03:36:54;23.90;49.60
33105;DHT22;19476;51.448;6.674;2023-06-24T03:39:22;23.90;49.80
33105;DHT22;19476;51.448;6.674;2023-06-24T03:41:48;23.90;49.80
33105;DHT22;19476;51.448;6.674;2023-06-24T03:44:14;23.90;49.80
33105;DHT22;19476;51.448;6.674;2023-06-24T03:46:40;23.80;49.90
33105;DHT22;19476;51.448;6.674;2023-06-24T03:49:06;23.80;49.90
33105;DHT22;19476;51.448;6.674;2023-06-24T03:51:32;23.80;50.00
33105;DHT22;19476;51.448;6.674;2023-06-24T03:53:58;23.80;50.10
33105;DHT22;19476;51.448;6.674;2023-06-24T03:56:23;23.80;50.10
33105;DHT22;19476;51.448;6.674;2023-06-24T03:58:49;23.80;50.20
33105;DHT22;19476;51.448;6.674;2023-06-24T04:01:15;23.80;50.20
33105;DHT22;19476;51.448;6.674;2023-06-24T04:03:45;23.70;50.30
33105;DHT22;19476;51.448;6.674;2023-06-24T04:06:11;23.80;50.60
33105;DHT22;19476;51.448;6.674;2023-06-24T04:08:37;23.80;50.50
33105;DHT22;19476;51.448;6.674;2023-06-24T04:11:05;23.80;50.60
33105;DHT22;19476;51.448;6.674;2023-06-24T04:13:32;23.80;50.70
33105;DHT22;19476;51.448;6.674;2023-06-24T04:15:58;23.70;50.90
33105;DHT22;19476;51.448;6.674;2023-06-24T04:18:24;23.80;51.00
33105;DHT22;19476;51.448;6.674;2023-06-24T04:20:50;23.80;51.10
33105;DHT22;19476;51.448;6.674;2023-06-24T04:23:16;23.70;51.10
33105;DHT22;19476;51.448;6.674;2023-06-24T04:25:42;23.80;51.30
33105;DHT22;19476;51.448;6.674;2023-06-24T04:28:08;23.80;51.40
33105;DHT22;19476;51.448;6.674;2023-06-24T04:30:34;23.80;51.50
33105;DHT22;19476;51.448;6.674;2023-06-24T04:33:01;23.80;51.60
33105;DHT22;19476;51.448;6.674;2023-06-24T04:35:27;23.80;51.80
33105;DHT22;19476;51.448;6.674;2023-06-24T04:37:53;23.80;51.80
33105;DHT22;19476;51.448;6.674;2023-06-24T04:40:19;23.70;51.90
33105;DHT22;19476;51.448;6.674;2023-06-24T04:42:46;23.70;52.10
33105;DHT22;19476;51.448;6.674;2023-06-24T04:45:12;23.70;52.20
33105;DHT22;19476;51.448;6.674;2023-06-24T04:47:37;23.70;52.40
33105;DHT22;19476;51.448;6.674;2023-06-24T04:50:04;23.70;52.60
33105;DHT22;19476;51.448;6.674;2023-06-24T04:52:29;23.70;52.60
33105;DHT22;19476;51.448;6.674;2023-06-24T04:54:55;23.70;52.70
33105;DHT22;19476;51.448;6.674;2023-06-24T04:57:29;23.70;52.90
33105;DHT22;19476;51.448;6.674;2023-06-24T04:59:56;23.80;53.70
33105;DHT22;19476;51.448;6.674;2023-06-24T05:02:23;23.70;53.30
33105;DHT22;19476;51.448;6.674;2023-06-24T05:04:51;23.80;53.40
33105;DHT22;19476;51.448;6.674;2023-06-24T05:07:16;23.70;53.50
33105;DHT22;19476;51.448;6.674;2023-06-24T05:09:42;23.80;53.50
33105;DHT22;19476;51.448;6.674;2023-06-24T05:12:09;23.80;53.60
33105;DHT22;19476;51.448;6.674;2023-06-24T05:14:35;23.80;53.70
33105;DHT22;19476;51.448;6.674;2023-06-24T05:17:02;23.90;53.90
33105;DHT22;19476;51.448;6.674;2023-06-24T05:19:28;23.90;54.00
33105;DHT22;19476;51.448;6.674;2023-06-24T05:21:54;23.90;53.90
33105;DHT22;19476;51.448;6.674;2023-06-24T05:24:20;23.90;53.90
33105;DHT22;19476;51.448;6.674;2023-06-24T05:26:48;24.00;54.10
33105;DHT22;19476;51.448;6.674;2023-06-24T05:29:14;24.00;54.30
33105;DHT22;19476;51.448;6.674;2023-06-24T05:31:40;24.00;54.00
33105;DHT22;19476;51.448;6.674;2023-06-24T05:34:07;24.10;54.20
33105;DHT22;19476;51.448;6.674;2023-06-24T05:36:33;24.10;54.20
33105;DHT22;19476;51.448;6.674;2023-06-24T05:38:59;24.20;54.20
33105;DHT22;19476;51.448;6.674;2023-06-24T05:41:24;24.20;54.20
33105;DHT22;19476;51.448;6.674;2023-06-24T05:44:01;24.20;54.20
33105;DHT22;19476;51.448;6.674;2023-06-24T05:46:28;24.20;54.60
33105;DHT22;19476;51.448;6.674;2023-06-24T05:48:53;24.30;54.30
33105;DHT22;19476;51.448;6.674;2023-06-24T05:51:19;24.30;54.20
33105;DHT22;19476;51.448;6.674;2023-06-24T05:53:45;24.30;54.20
33105;DHT22;19476;51.448;6.674;2023-06-24T05:56:11;24.40;54.20
33105;DHT22;19476;51.448;6.674;2023-06-24T05:58:36;24.40;54.20
33105;DHT22;19476;51.448;6.674;2023-06-24T06:01:02;24.40;54.20
33105;DHT22;19476;51.448;6.674;2023-06-24T06:03:28;24.50;54.30
33105;DHT22;19476;51.448;6.674;2023-06-24T06:05:54;24.50;54.40
33105;DHT22;19476;51.448;6.674;2023-06-24T06:08:20;24.50;54.30
33105;DHT22;19476;51.448;6.674;2023-06-24T06:10:45;24.50;54.20
33105;DHT22;19476;51.448;6.674;2023-06-24T06:13:12;24.60;54.20
33105;DHT22;19476;51.448;6.674;2023-06-24T06:15:38;24.60;54.10
33105;DHT22;19476;51.448;6.674;2023-06-24T06:18:03;24.70;54.10
33105;DHT22;19476;51.448;6.674;2023-06-24T06:20:29;24.70;54.00
33105;DHT22;19476;51.448;6.674;2023-06-24T06:22:55;24.70;54.00
33105;DHT22;19476;51.448;6.674;2023-06-24T06:25:21;24.80;54.00
33105;DHT22;19476;51.448;6.674;2023-06-24T06:27:46;24.80;53.90
33105;DHT22;19476;51.448;6.674;2023-06-24T06:30:13;24.90;53.80
33105;DHT22;19476;51.448;6.674;2023-06-24T06:32:39;25.00;53.80
33105;DHT22;19476;51.448;6.674;2023-06-24T06:35:05;25.00;53.80
33105;DHT22;19476;51.448;6.674;2023-06-24T06:37:31;25.00;53.70
33105;DHT22;19476;51.448;6.674;2023-06-24T06:39:57;25.10;53.60
33105;DHT22;19476;51.448;6.674;2023-06-24T06:42:23;25.10;53.40
33105;DHT22;19476;51.448;6.674;2023-06-24T06:44:48;25.20;53.40
33105;DHT22;19476;51.448;6.674;2023-06-24T06:47:14;25.30;53.50
33105;DHT22;19476;51.448;6.674;2023-06-24T06:49:40;25.30;53.30
33105;DHT22;19476;51.448;6.674;2023-06-24T06:52:06;25.40;53.40
33105;DHT22;19476;51.448;6.674;2023-06-24T06:54:32;25.40;53.20
33105;DHT22;19476;51.448;6.674;2023-06-24T06:57:02;25.50;53.00
33105;DHT22;19476;51.448;6.674;2023-06-24T06:59:29;25.50;52.80
33105;DHT22;19476;51.448;6.674;2023-06-24T07:01:55;25.60;52.70
33105;DHT22;19476;51.448;6.674;2023-06-24T07:04:21;25.60;52.60
33105;DHT22;19476;51.448;6.674;2023-06-24T07:06:47;25.70;52.50
33105;DHT22;19476;51.448;6.674;2023-06-24T07:09:13;25.70;52.30
33105;DHT22;19476;51.448;6.674;2023-06-24T07:11:40;25.70;52.00
33105;DHT22;19476;51.448;6.674;2023-06-24T07:14:06;25.80;52.10
33105;DHT22;19476;51.448;6.674;2023-06-24T07:16:32;25.80;51.80
33105;DHT22;19476;51.448;6.674;2023-06-24T07:18:58;25.90;51.80
33105;DHT22;19476;51.448;6.674;2023-06-24T07:21:24;25.90;51.20
33105;DHT22;19476;51.448;6.674;2023-06-24T07:23:49;26.00;50.90
33105;DHT22;19476;51.448;6.674;2023-06-24T07:26:15;26.00;50.60
33105;DHT22;19476;51.448;6.674;2023-06-24T07:28:41;26.10;50.20
33105;DHT22;19476;51.448;6.674;2023-06-24T07:31:07;26.10;49.90
33105;DHT22;19476;51.448;6.674;2023-06-24T07:33:34;26.20;49.70
33105;DHT22;19476;51.448;6.674;2023-06-24T07:36:00;26.30;49.30
33105;DHT22;19476;51.448;6.674;2023-06-24T07:38:28;26.30;49.10
33105;DHT22;19476;51.448;6.674;2023-06-24T07:40:54;26.40;48.50
33105;DHT22;19476;51.448;6.674;2023-06-24T07:43:20;26.40;48.40
33105;DHT22;19476;51.448;6.674;2023-06-24T07:45:45;26.50;48.20
33105;DHT22;19476;51.448;6.674;2023-06-24T07:48:11;26.50;48.00
33105;DHT22;19476;51.448;6.674;2023-06-24T07:50:38;26.60;47.60
33105;DHT22;19476;51.448;6.674;2023-06-24T07:53:04;26.70;47.50
33105;DHT22;19476;51.448;6.674;2023-06-24T07:55:31;26.70;47.30
33105;DHT22;19476;51.448;6.674;2023-06-24T07:57:57;26.80;47.00
33105;DHT22;19476;51.448;6.674;2023-06-24T08:00:25;26.80;46.60
33105;DHT22;19476;51.448;6.674;2023-06-24T08:02:51;26.90;46.40
33105;DHT22;19476;51.448;6.674;2023-06-24T08:05:17;26.90;46.00
33105;DHT22;19476;51.448;6.674;2023-06-24T08:07:44;27.00;45.90
33105;DHT22;19476;51.448;6.674;2023-06-24T08:10:10;27.10;45.60
33105;DHT22;19476;51.448;6.674;2023-06-24T08:12:36;27.10;45.00
33105;DHT22;19476;51.448;6.674;2023-06-24T08:15:02;27.20;44.50
33105;DHT22;19476;51.448;6.674;2023-06-24T08:17:29;27.20;43.70
33105;DHT22;19476;51.448;6.674;2023-06-24T08:19:54;27.20;43.00
33105;DHT22;19476;51.448;6.674;2023-06-24T08:22:20;27.30;43.00
33105;DHT22;19476;51.448;6.674;2023-06-24T08:24:46;27.30;43.40
33105;DHT22;19476;51.448;6.674;2023-06-24T08:27:11;27.30;42.90
33105;DHT22;19476;51.448;6.674;2023-06-24T08:29:37;27.40;43.20
33105;DHT22;19476;51.448;6.674;2023-06-24T08:32:04;27.50;43.30
33105;DHT22;19476;51.448;6.674;2023-06-24T08:34:32;27.50;43.40
33105;DHT22;19476;51.448;6.674;2023-06-24T08:36:58;27.60;43.50
33105;DHT22;19476;51.448;6.674;2023-06-24T08:39:24;27.60;43.30
33105;DHT22;19476;51.448;6.674;2023-06-24T08:41:50;27.70;43.30
33105;DHT22;19476;51.448;6.674;2023-06-24T08:44:15;27.70;43.20
33105;DHT22;19476;51.448;6.674;2023-06-24T08:46:41;27.70;43.10
33105;DHT22;19476;51.448;6.674;2023-06-24T08:52:00;27.80;42.40
33105;DHT22;19476;51.448;6.674;2023-06-24T08:54:28;27.90;42.90
33105;DHT22;19476;51.448;6.674;2023-06-24T08:56:54;27.90;43.20
33105;DHT22;19476;51.448;6.674;2023-06-24T08:59:20;28.00;43.00
33105;DHT22;19476;51.448;6.674;2023-06-24T09:01:47;28.10;42.60
33105;DHT22;19476;51.448;6.674;2023-06-24T09:04:13;28.10;42.30
33105;DHT22;19476;51.448;6.674;2023-06-24T09:06:39;28.10;42.00
33105;DHT22;19476;51.448;6.674;2023-06-24T09:09:04;28.20;41.80
33105;DHT22;19476;51.448;6.674;2023-06-24T09:11:30;28.20;41.80
33105;DHT22;19476;51.448;6.674;2023-06-24T09:14:01;28.20;41.50
33105;DHT22;19476;51.448;6.674;2023-06-24T09:16:29;28.30;41.10
33105;DHT22;19476;51.448;6.674;2023-06-24T09:18:55;28.30;41.00
33105;DHT22;19476;51.448;6.674;2023-06-24T09:21:25;28.40;41.30
33105;DHT22;19476;51.448;6.674;2023-06-24T09:23:54;28.40;41.30
33105;DHT22;19476;51.448;6.674;2023-06-24T09:26:23;28.50;40.80
33105;DHT22;19476;51.448;6.674;2023-06-24T09:28:49;28.50;40.60
33105;DHT22;19476;51.448;6.674;2023-06-24T09:31:15;28.60;40.60
33105;DHT22;19476;51.448;6.674;2023-06-24T09:33:41;28.70;40.40
33105;DHT22;19476;51.448;6.674;2023-06-24T09:36:11;28.70;40.10
33105;DHT22;19476;51.448;6.674;2023-06-24T09:38:38;28.70;38.70
33105;DHT22;19476;51.448;6.674;2023-06-24T09:41:06;28.80;39.50
33105;DHT22;19476;51.448;6.674;2023-06-24T09:43:36;28.80;39.40
33105;DHT22;19476;51.448;6.674;2023-06-24T09:46:03;28.90;39.30
33105;DHT22;19476;51.448;6.674;2023-06-24T09:48:29;28.90;38.10
33105;DHT22;19476;51.448;6.674;2023-06-24T09:51:03;29.00;37.70
33105;DHT22;19476;51.448;6.674;2023-06-24T09:53:33;29.10;37.20
33105;DHT22;19476;51.448;6.674;2023-06-24T09:56:07;29.10;37.50
33105;DHT22;19476;51.448;6.674;2023-06-24T09:58:36;29.20;37.20
33105;DHT22;19476;51.448;6.674;2023-06-24T10:01:03;29.20;37.50
33105;DHT22;19476;51.448;6.674;2023-06-24T10:03:35;29.30;37.00
33105;DHT22;19476;51.448;6.674;2023-06-24T10:06:02;29.30;36.10
33105;DHT22;19476;51.448;6.674;2023-06-24T10:08:31;29.40;36.60
33105;DHT22;19476;51.448;6.674;2023-06-24T10:10:58;29.40;36.20
33105;DHT22;19476;51.448;6.674;2023-06-24T10:13:25;29.40;36.60
33105;DHT22;19476;51.448;6.674;2023-06-24T10:15:51;29.50;35.20
33105;DHT22;19476;51.448;6.674;2023-06-24T10:18:37;29.50;35.00
33105;DHT22;19476;51.448;6.674;2023-06-24T10:21:08;29.50;34.00
33105;DHT22;19476;51.448;6.674;2023-06-24T10:26:24;29.70;32.60
33105;DHT22;19476;51.448;6.674;2023-06-24T10:42:39;30.00;33.30
33105;DHT22;19476;51.448;6.674;2023-06-24T10:47:37;30.10;33.10
33105;DHT22;19476;51.448;6.674;2023-06-24T10:50:05;30.20;32.80
33105;DHT22;19476;51.448;6.674;2023-06-24T10:52:32;30.30;31.90
33105;DHT22;19476;51.448;6.674;2023-06-24T10:54:58;30.30;32.00
33105;DHT22;19476;51.448;6.674;2023-06-24T10:57:26;30.30;31.90
33105;DHT22;19476;51.448;6.674;2023-06-24T10:59:55;30.40;31.00
33105;DHT22;19476;51.448;6.674;2023-06-24T11:02:26;30.50;31.20
33105;DHT22;19476;51.448;6.674;2023-06-24T11:07:20;30.60;30.00
33105;DHT22;19476;51.448;6.674;2023-06-24T11:09:51;30.60;30.30
33105;DHT22;19476;51.448;6.674;2023-06-24T11:12:18;30.70;30.10
33105;DHT22;19476;51.448;6.674;2023-06-24T11:14:44;30.70;30.70
33105;DHT22;19476;51.448;6.674;2023-06-24T11:17:10;30.80;31.10
33105;DHT22;19476;51.448;6.674;2023-06-24T11:19:36;30.90;30.40
33105;DHT22;19476;51.448;6.674;2023-06-24T11:22:06;31.00;30.50
33105;DHT22;19476;51.448;6.674;2023-06-24T11:24:33;31.10;30.70
33105;DHT22;19476;51.448;6.674;2023-06-24T11:26:59;31.20;30.40
33105;DHT22;19476;51.448;6.674;2023-06-24T11:29:28;31.20;30.10
33105;DHT22;19476;51.448;6.674;2023-06-24T11:31:55;31.30;29.40
33105;DHT22;19476;51.448;6.674;2023-06-24T11:34:21;31.40;30.00
33105;DHT22;19476;51.448;6.674;2023-06-24T11:36:48;31.40;29.50
33105;DHT22;19476;51.448;6.674;2023-06-24T11:39:21;31.40;29.30
33105;DHT22;19476;51.448;6.674;2023-06-24T11:41:47;31.50;28.90
33105;DHT22;19476;51.448;6.674;2023-06-24T11:44:13;31.60;29.20
33105;DHT22;19476;51.448;6.674;2023-06-24T11:46:40;31.60;29.40
33105;DHT22;19476;51.448;6.674;2023-06-24T11:49:09;31.70;29.40
33105;DHT22;19476;51.448;6.674;2023-06-24T11:51:35;31.70;28.90
33105;DHT22;19476;51.448;6.674;2023-06-24T11:54:03;31.80;29.20
33105;DHT22;19476;51.448;6.674;2023-06-24T11:56:38;31.90;28.90
33105;DHT22;19476;51.448;6.674;2023-06-24T11:59:16;31.90;28.40
33105;DHT22;19476;51.448;6.674;2023-06-24T12:02:07;32.00;28.40
33105;DHT22;19476;51.448;6.674;2023-06-24T12:04:33;32.10;29.20
33105;DHT22;19476;51.448;6.674;2023-06-24T12:07:00;32.20;29.40
33105;DHT22;19476;51.448;6.674;2023-06-24T12:09:26;32.20;29.30
33105;DHT22;19476;51.448;6.674;2023-06-24T12:11:52;32.40;29.40
33105;DHT22;19476;51.448;6.674;2023-06-24T12:14:18;32.50;29.20
33105;DHT22;19476;51.448;6.674;2023-06-24T12:16:44;32.50;29.00
33105;DHT22;19476;51.448;6.674;2023-06-24T12:19:10;32.60;28.70
33105;DHT22;19476;51.448;6.674;2023-06-24T12:21:37;32.70;28.70
33105;DHT22;19476;51.448;6.674;2023-06-24T12:24:04;32.80;28.50
33105;DHT22;19476;51.448;6.674;2023-06-24T12:26:33;32.80;28.70
33105;DHT22;19476;51.448;6.674;2023-06-24T12:28:59;32.80;27.80
33105;DHT22;19476;51.448;6.674;2023-06-24T12:31:24;32.90;28.30
33105;DHT22;19476;51.448;6.674;2023-06-24T12:33:51;32.90;28.20
33105;DHT22;19476;51.448;6.674;2023-06-24T12:36:18;33.00;28.30
33105;DHT22;19476;51.448;6.674;2023-06-24T12:38:44;33.10;28.20
33105;DHT22;19476;51.448;6.674;2023-06-24T12:41:10;33.30;28.60
33105;DHT22;19476;51.448;6.674;2023-06-24T12:43:35;33.30;28.40
33105;DHT22;19476;51.448;6.674;2023-06-24T12:46:01;33.40;28.50
33105;DHT22;19476;51.448;6.674;2023-06-24T12:48:27;33.60;28.70
33105;DHT22;19476;51.448;6.674;2023-06-24T12:50:53;33.70;28.40
33105;DHT22;19476;51.448;6.674;2023-06-24T12:53:20;33.80;27.90
33105;DHT22;19476;51.448;6.674;2023-06-24T12:55:45;33.90;27.90
33105;DHT22;19476;51.448;6.674;2023-06-24T12:58:13;34.10;27.70
33105;DHT22;19476;51.448;6.674;2023-06-24T13:00:39;34.20;27.40
33105;DHT22;19476;51.448;6.674;2023-06-24T13:03:05;34.30;27.50
33105;DHT22;19476;51.448;6.674;2023-06-24T13:05:31;34.40;27.40
33105;DHT22;19476;51.448;6.674;2023-06-24T13:07:59;34.50;26.90
33105;DHT22;19476;51.448;6.674;2023-06-24T13:10:25;34.60;26.20
33105;DHT22;19476;51.448;6.674;2023-06-24T13:12:52;34.70;26.30
33105;DHT22;19476;51.448;6.674;2023-06-24T13:15:18;34.80;26.20
33105;DHT22;19476;51.448;6.674;2023-06-24T13:17:44;34.80;25.70
33105;DHT22;19476;51.448;6.674;2023-06-24T13:20:10;34.90;25.50
33105;DHT22;19476;51.448;6.674;2023-06-24T13:22:36;35.00;25.10
33105;DHT22;19476;51.448;6.674;2023-06-24T13:25:02;35.00;24.90
33105;DHT22;19476;51.448;6.674;2023-06-24T13:27:27;35.10;25.40
33105;DHT22;19476;51.448;6.674;2023-06-24T13:29:53;35.30;25.40
33105;DHT22;19476;51.448;6.674;2023-06-24T13:32:19;35.30;25.20
33105;DHT22;19476;51.448;6.674;2023-06-24T13:34:45;35.40;25.20
33105;DHT22;19476;51.448;6.674;2023-06-24T13:37:11;35.50;25.50
33105;DHT22;19476;51.448;6.674;2023-06-24T13:39:37;35.60;25.60
33105;DHT22;19476;51.448;6.674;2023-06-24T13:42:02;35.70;25.50
33105;DHT22;19476;51.448;6.674;2023-06-24T13:44:28;35.80;25.10
33105;DHT22;19476;51.448;6.674;2023-06-24T13:46:54;36.00;25.00
33105;DHT22;19476;51.448;6.674;2023-06-24T13:49:20;36.10;24.80
33105;DHT22;19476;51.448;6.674;2023-06-24T13:51:45;36.20;24.80
33105;DHT22;19476;51.448;6.674;2023-06-24T13:54:12;36.10;24.70
33105;DHT22;19476;51.448;6.674;2023-06-24T13:56:37;36.30;24.70
33105;DHT22;19476;51.448;6.674;2023-06-24T13:59:03;36.50;24.90
33105;DHT22;19476;51.448;6.674;2023-06-24T14:01:29;36.50;24.80
33105;DHT22;19476;51.448;6.674;2023-06-24T14:03:55;36.50;24.50
33105;DHT22;19476;51.448;6.674;2023-06-24T14:06:22;36.50;24.30
33105;DHT22;19476;51.448;6.674;2023-06-24T14:08:49;36.60;24.40
33105;DHT22;19476;51.448;6.674;2023-06-24T14:11:16;36.60;24.50
33105;DHT22;19476;51.448;6.674;2023-06-24T14:13:43;36.60;25.10
33105;DHT22;19476;51.448;6.674;2023-06-24T14:16:09;36.70;24.50
33105;DHT22;19476;51.448;6.674;2023-06-24T14:18:36;36.70;24.60
33105;DHT22;19476;51.448;6.674;2023-06-24T14:21:03;36.80;24.80
33105;DHT22;19476;51.448;6.674;2023-06-24T14:23:31;36.90;24.40
33105;DHT22;19476;51.448;6.674;2023-06-24T14:25:57;36.90;24.30
33105;DHT22;19476;51.448;6.674;2023-06-24T14:28:24;37.00;24.60
33105;DHT22;19476;51.448;6.674;2023-06-24T14:30:50;37.00;24.50
33105;DHT22;19476;51.448;6.674;2023-06-24T14:33:17;37.10;24.50
33105;DHT22;19476;51.448;6.674;2023-06-24T14:35:43;37.20;24.60
33105;DHT22;19476;51.448;6.674;2023-06-24T14:38:08;37.30;24.70
33105;DHT22;19476;51.448;6.674;2023-06-24T14:40:34;37.40;24.80
33105;DHT22;19476;51.448;6.674;2023-06-24T14:43:01;37.50;24.80
33105;DHT22;19476;51.448;6.674;2023-06-24T14:45:27;37.60;24.80
33105;DHT22;19476;51.448;6.674;2023-06-24T14:47:53;37.70;24.60
33105;DHT22;19476;51.448;6.674;2023-06-24T14:50:19;37.80;24.50
33105;DHT22;19476;51.448;6.674;2023-06-24T14:52:45;37.90;24.50
33105;DHT22;19476;51.448;6.674;2023-06-24T14:55:11;37.90;24.40
33105;DHT22;19476;51.448;6.674;2023-06-24T14:57:40;38.00;24.20
33105;DHT22;19476;51.448;6.674;2023-06-24T15:00:07;38.10;24.30
33105;DHT22;19476;51.448;6.674;2023-06-24T15:02:34;38.40;24.50
33105;DHT22;19476;51.448;6.674;2023-06-24T15:05:01;38.30;24.00
33105;DHT22;19476;51.448;6.674;2023-06-24T15:07:27;38.30;23.80
33105;DHT22;19476;51.448;6.674;2023-06-24T15:09:53;38.40;23.70
33105;DHT22;19476;51.448;6.674;2023-06-24T15:12:19;38.50;24.40
33105;DHT22;19476;51.448;6.674;2023-06-24T15:14:45;38.50;23.80
33105;DHT22;19476;51.448;6.674;2023-06-24T15:17:12;38.60;23.60
33105;DHT22;19476;51.448;6.674;2023-06-24T15:19:37;38.70;23.70
33105;DHT22;19476;51.448;6.674;2023-06-24T15:22:03;38.80;23.60
33105;DHT22;19476;51.448;6.674;2023-06-24T15:24:29;38.80;23.20
33105;DHT22;19476;51.448;6.674;2023-06-24T15:26:57;38.90;23.20
33105;DHT22;19476;51.448;6.674;2023-06-24T15:29:25;39.00;23.00
33105;DHT22;19476;51.448;6.674;2023-06-24T15:31:51;39.00;23.10
33105;DHT22;19476;51.448;6.674;2023-06-24T15:34:17;39.00;22.80
33105;DHT22;19476;51.448;6.674;2023-06-24T15:36:43;39.00;22.70
33105;DHT22;19476;51.448;6.674;2023-06-24T15:39:09;39.00;22.70
33105;DHT22;19476;51.448;6.674;2023-06-24T15:41:36;39.10;22.60
33105;DHT22;19476;51.448;6.674;2023-06-24T15:44:04;39.10;22.60
33105;DHT22;19476;51.448;6.674;2023-06-24T15:46:31;39.20;22.20
33105;DHT22;19476;51.448;6.674;2023-06-24T15:48:56;39.30;22.50
33105;DHT22;19476;51.448;6.674;2023-06-24T15:51:22;39.40;22.60
33105;DHT22;19476;51.448;6.674;2023-06-24T15:53:48;39.50;22.40
33105;DHT22;19476;51.448;6.674;2023-06-24T15:56:14;39.60;22.30
33105;DHT22;19476;51.448;6.674;2023-06-24T15:58:42;39.60;22.40
33105;DHT22;19476;51.448;6.674;2023-06-24T16:01:09;39.70;22.10
33105;DHT22;19476;51.448;6.674;2023-06-24T16:03:35;39.90;22.40